Time;durP1;ratioP1;P1;durP2;ratioP2;P2;SDS_P1;SDS_P2;PMS_P1;PMS_P2;Temp;Humidity;BMP_temperature;BMP_pressure;BME280_temperature;BME280_humidity;BME280_pressure;Samples;Min_cycle;Max_cycle;Signal;HPM_P1;HPM_P2
2023/01/13 00:02:33;;;;;;;0.30;0.30;;;11.60;99.90;;;11.65;100.00;100033.91;5136518;28;20690;-72
2023/01/13 00:05:08;;;;;;;0.15;0.15;;;11.60;99.90;;;11.67;100.00;100034.84;5137729;28;20051;-71
2023/01/13 00:07:40;;;;;;;;;;;11.60;99.90;;;11.67;100.00;100029.63;5141385;28;20043;-71
2023/01/13 00:10:12;;;;;;;0.30;0.30;;;11.60;99.90;;;11.67;100.00;100027.00;5142350;28;19929;-71
2023/01/13 00:12:44;;;;;;;0.20;0.20;;;11.60;99.90;;;11.71;100.00;100040.97;5142765;28;20051;-71
2023/01/13 00:15:17;;;;;;;0.25;0.20;;;11.70;99.90;;;11.70;100.00;100028.78;5142661;28;20043;-71
2023/01/13 00:17:51;;;;;;;0.28;0.28;;;11.60;99.90;;;11.71;100.00;100033.16;5137083;28;20050;-71
2023/01/13 00:20:24;;;;;;;0.75;0.20;;;11.70;99.90;;;11.67;100.00;100024.41;5142350;28;20592;-71
2023/01/13 00:22:57;;;;;;;0.10;0.10;;;11.60;99.90;;;11.68;100.00;100020.06;5142721;28;20049;-72
2023/01/13 00:25:30;;;;;;;0.20;0.20;;;11.70;99.90;;;11.67;100.00;100024.41;5130426;28;20050;-71
2023/01/13 00:28:02;;;;;;;0.22;0.22;;;11.60;99.90;;;11.68;100.00;100014.84;5122690;28;20143;-71
2023/01/13 00:30:37;;;;;;;0.35;0.35;;;11.70;99.90;;;11.69;100.00;100012.25;5125600;28;20039;-72
2023/01/13 00:33:13;;;;;;;0.17;0.17;;;11.60;99.90;;;11.67;100.00;100013.06;5142543;28;20057;-71
2023/01/13 00:35:45;;;;;;;0.17;0.17;;;11.70;99.90;;;11.67;100.00;100013.97;5142449;28;20072;-72
2023/01/13 00:38:17;;;;;;;0.40;0.40;;;11.60;99.90;;;11.68;100.00;100012.22;5141154;28;20105;-71
2023/01/13 00:40:56;;;;;;;0.13;0.13;;;11.70;99.90;;;11.70;100.00;100026.19;5108825;28;20526;-70
2023/01/13 00:43:29;;;;;;;0.55;0.25;;;11.60;99.90;;;11.68;100.00;100028.78;5142687;28;20507;-71
2023/01/13 00:46:02;;;;;;;0.13;0.13;;;11.70;99.90;;;11.66;100.00;100033.06;5142555;28;20504;-71
2023/01/13 00:48:37;;;;;;;0.20;0.20;;;11.60;99.90;;;11.66;100.00;100045.25;5131296;28;20563;-71
2023/01/13 00:51:13;;;;;;;0.20;0.20;;;11.60;99.90;;;11.63;100.00;100053.91;5146323;28;20075;-71
2023/01/13 00:53:48;;;;;;;1.33;0.20;;;11.60;99.90;;;11.58;100.00;100049.44;5144796;28;20069;-71
2023/01/13 00:56:23;;;;;;;0.38;0.30;;;11.60;99.90;;;11.53;100.00;100062.41;5141796;28;20050;-71
2023/01/13 00:58:55;;;;;;;0.32;0.32;;;11.60;99.90;;;11.46;100.00;100044.88;5146061;28;20503;-71
2023/01/13 01:01:28;;;;;;;0.20;0.20;;;11.50;99.90;;;11.33;100.00;100069.84;5146802;28;20054;-71
2023/01/13 01:04:01;;;;;;;0.22;0.22;;;11.40;99.90;;;11.14;100.00;100058.13;5146799;28;20158;-70
2023/01/13 01:06:33;;;;;;;0.88;0.50;;;11.20;99.90;;;10.94;100.00;100059.44;5113406;28;20304;-72
2023/01/13 01:09:06;;;;;;;0.60;0.30;;;11.10;99.90;;;10.72;100.00;100036.38;5146482;28;20065;-73
2023/01/13 01:11:38;;;;;;;0.50;0.50;;;10.90;99.90;;;10.60;100.00;100057.81;5147329;28;20043;-71
2023/01/13 01:14:13;;;;;;;2.03;0.57;;;10.80;99.90;;;10.51;100.00;100037.66;5147446;28;20058;-71
2023/01/13 01:16:45;;;;;;;1.88;0.73;;;10.60;99.90;;;10.47;100.00;100033.22;5147211;28;20062;-71
2023/01/13 01:19:19;;;;;;;0.43;0.40;;;10.60;99.90;;;10.44;100.00;100040.97;5128340;28;20066;-72
2023/01/13 01:21:51;;;;;;;0.75;0.40;;;10.50;99.90;;;10.44;100.00;100033.16;5137403;28;20055;-72
2023/01/13 01:24:23;;;;;;;0.90;0.40;;;10.50;99.90;;;10.49;100.00;100033.25;5126164;28;20043;-71
2023/01/13 01:26:55;;;;;;;1.48;0.38;;;10.60;99.90;;;10.48;100.00;100021.94;5126923;29;20057;-72
2023/01/13 01:29:27;;;;;;;0.40;0.32;;;10.50;99.90;;;10.49;100.00;100030.63;5126254;28;20044;-72
2023/01/13 01:31:59;;;;;;;0.70;0.32;;;10.50;99.90;;;10.52;100.00;100033.31;5125845;28;20050;-71
2023/01/13 01:34:34;;;;;;;0.38;0.32;;;10.60;99.90;;;10.52;100.00;100029.00;5126299;28;20047;-71
2023/01/13 01:37:06;;;;;;;0.85;0.47;;;10.60;99.90;;;10.55;100.00;100039.47;5126219;28;20051;-71
2023/01/13 01:39:38;;;;;;;0.98;0.50;;;10.60;99.90;;;10.57;100.00;100050.84;5125901;28;20046;-72
2023/01/13 01:45:15;;;;;;;0.32;0.13;;;10.60;99.90;;;10.60;100.00;100071.75;5126168;28;20050;-71
2023/01/13 01:47:51;;;;;;;2.60;0.50;;;10.60;99.90;;;10.62;100.00;100060.47;5125706;28;20126;-71
2023/01/13 01:50:26;;;;;;;1.70;0.70;;;10.60;99.90;;;10.60;100.00;100074.34;5125210;28;20495;-71
2023/01/13 01:53:05;;;;;;;0.65;0.65;;;10.60;99.90;;;10.59;100.00;100082.13;5125416;28;20054;-72
2023/01/13 01:55:38;;;;;;;1.77;0.40;;;10.60;99.90;;;10.54;100.00;100068.09;5133161;28;20445;-71
2023/01/13 01:58:15;;;;;;;1.63;0.43;;;10.60;99.90;;;10.51;100.00;100083.69;5144556;28;20053;-71
2023/01/13 02:00:48;;;;;;;1.42;0.60;;;10.60;99.90;;;10.47;100.00;100072.28;5116949;28;20062;-71
2023/01/13 02:03:20;;;;;;;1.38;0.65;;;10.50;99.90;;;10.46;100.00;100075.75;5136630;28;20214;-71
2023/01/13 02:05:54;;;;;;;2.17;0.73;;;10.50;99.90;;;10.44;100.00;100081.78;5137270;28;20126;-71
2023/01/13 02:08:26;;;;;;;1.35;0.90;;;10.50;99.90;;;10.35;100.00;100076.34;5129160;28;20051;-71
2023/01/13 02:10:58;;;;;;;0.80;0.52;;;10.40;99.90;;;10.23;100.00;100063.88;5127961;28;20094;-70
2023/01/13 02:13:29;;;;;;;2.40;0.63;;;10.30;99.90;;;10.19;100.00;100059.44;5126022;28;20043;-70
2023/01/13 02:16:12;;;;;;;0.68;0.52;;;10.30;99.90;;;10.19;100.00;100055.09;5125816;28;20040;-71
2023/01/13 02:18:57;;;;;;;1.05;0.70;;;10.30;99.90;;;10.20;100.00;100046.44;5125634;29;20035;-71
2023/01/13 02:22:13;;;;;;;1.48;0.55;;;10.30;99.90;;;10.22;100.00;100060.38;5126092;29;20139;-71
2023/01/13 02:25:11;;;;;;;0.43;0.35;;;10.30;99.90;;;10.23;100.00;100045.66;5124795;29;20047;-70
2023/01/13 02:28:05;;;;;;;0.82;0.70;;;10.30;99.90;;;10.24;100.00;100016.19;5108631;29;20218;-71
2023/01/13 02:34:03;;;;;;;1.95;0.63;;;10.30;99.90;;;10.25;100.00;100046.59;5125585;28;20058;-71
2023/01/13 02:36:47;;;;;;;0.50;0.50;;;10.30;99.90;;;10.25;100.00;100049.19;5125429;29;20051;-70
2023/01/13 02:39:27;;;;;;;0.30;0.30;;;10.30;99.90;;;10.24;100.00;100060.47;5125146;29;20118;-71
2023/01/13 02:45:03;;;;;;;0.50;0.40;;;10.30;99.90;;;10.25;100.00;100059.63;5125525;29;20046;-71
2023/01/13 02:47:40;;;;;;;0.35;0.32;;;10.30;99.90;;;10.26;100.00;100071.78;5125176;29;20048;-71
2023/01/13 02:50:17;;;;;;;0.30;0.30;;;10.30;99.90;;;10.27;100.00;100064.00;5125141;29;20047;-70
2023/01/13 02:52:55;;;;;;;0.45;0.45;;;10.30;99.90;;;10.29;100.00;100066.63;5108012;29;20054;-71
2023/01/13 02:55:32;;;;;;;0.63;0.30;;;10.30;99.90;;;10.29;100.00;100061.44;5125265;29;20125;-71
2023/01/13 02:58:08;;;;;;;0.55;0.40;;;10.30;99.90;;;10.27;100.00;100057.91;5125238;29;20046;-70
2023/01/13 03:00:41;;;;;;;0.90;0.30;;;10.30;99.90;;;10.26;100.00;100058.78;5107326;29;20046;-71
2023/01/13 03:03:15;;;;;;;0.32;0.32;;;10.30;99.90;;;10.22;100.00;100052.56;5124860;29;20074;-70
2023/01/13 03:05:52;;;;;;;0.35;0.32;;;10.20;99.90;;;10.20;100.00;100050.78;5124630;29;20047;-70
2023/01/13 03:08:38;;;;;;;0.38;0.30;;;10.20;99.90;;;10.18;100.00;100047.25;5107883;29;20131;-72
2023/01/13 03:11:13;;;;;;;0.35;0.35;;;10.20;99.90;;;10.18;100.00;100042.94;5123831;28;20039;-71
2023/01/13 03:14:00;;;;;;;;;;;10.20;99.90;;;10.19;100.00;100043.81;5125542;29;20057;-71
2023/01/13 03:16:48;;;;;;;0.75;0.25;;;10.20;99.90;;;10.18;100.00;100039.44;5107489;29;19926;-70
2023/01/13 03:19:33;;;;;;;2.03;0.30;;;10.20;99.90;;;10.18;100.00;100047.25;5124119;29;20047;-70
2023/01/13 03:22:18;;;;;;;0.95;0.40;;;10.20;99.90;;;10.17;100.00;100045.47;5123307;29;20051;-71
2023/01/13 03:24:55;;;;;;;0.30;0.30;;;10.20;99.90;;;10.14;100.00;100024.56;5124410;29;20077;-71
2023/01/13 03:27:32;;;;;;;1.27;0.32;;;10.20;99.90;;;10.14;100.00;100025.44;5123417;29;20496;-70
2023/01/13 03:30:10;;;;;;;0.30;0.30;;;10.10;99.90;;;10.13;100.00;100020.22;5124145;29;20047;-71
2023/01/13 03:32:45;;;;;;;1.50;0.32;;;10.10;99.90;;;10.11;100.00;100020.19;5124431;29;20383;-71
2023/01/13 03:35:25;;;;;;;1.08;0.40;;;10.20;99.90;;;10.12;100.00;100021.06;5124144;29;20044;-70
2023/01/13 03:38:04;;;;;;;0.65;0.38;;;10.20;99.90;;;10.12;100.00;100021.06;5122904;29;20055;-70
2023/01/13 03:40:42;;;;;;;0.20;0.20;;;10.10;99.90;;;10.11;100.00;100033.19;5123608;29;20124;-70
2023/01/13 03:46:17;;;;;;;0.73;0.40;;;10.10;99.90;;;10.11;100.00;100024.50;5124224;29;20053;-71
2023/01/13 03:48:55;;;;;;;0.40;0.40;;;10.10;99.90;;;10.12;100.00;100026.28;5106590;29;20055;-70
2023/01/13 03:51:32;;;;;;;0.22;0.22;;;10.10;99.90;;;10.12;100.00;100037.56;5123731;29;20051;-70
2023/01/13 03:54:08;;;;;;;2.97;0.85;;;10.10;99.90;;;10.07;100.00;100031.34;5123941;29;20521;-70
2023/01/13 03:56:45;;;;;;;0.85;0.40;;;10.10;99.90;;;10.06;100.00;100033.09;5123882;29;20075;-71
2023/01/13 03:59:20;;;;;;;0.55;0.32;;;10.10;99.90;;;10.05;100.00;100036.53;5123116;29;20050;-71
2023/01/13 04:02:00;;;;;;;0.22;0.22;;;10.10;99.90;;;10.04;100.00;100039.97;5123779;29;20122;-70
2023/01/13 04:04:36;;;;;;;2.08;0.73;;;10.10;99.90;;;10.03;100.00;100043.41;5123791;29;20394;-71
2023/01/13 04:07:30;;;;;;;1.75;0.40;;;10.10;99.90;;;10.01;100.00;100028.59;5123942;29;20054;-70
2023/01/13 04:10:08;;;;;;;2.05;0.60;;;10.00;99.90;;;9.98;100.00;100039.84;5123289;29;20047;-71
2023/01/13 04:13:00;;;;;;;0.22;0.20;;;10.00;99.90;;;9.96;100.00;100036.28;5106124;29;20363;-70
2023/01/13 04:15:38;;;;;;;1.17;0.40;;;10.00;99.90;;;9.95;100.00;100033.66;5123611;29;20039;-71
2023/01/13 04:18:14;;;;;;;1.42;0.65;;;10.00;99.90;;;9.95;100.00;100033.66;5123759;29;20427;-70
2023/01/13 04:20:49;;;;;;;1.98;0.63;;;10.00;99.90;;;9.95;100.00;100042.34;5122990;29;20046;-70
2023/01/13 04:23:23;;;;;;;1.55;0.60;;;10.00;99.90;;;9.93;100.00;100035.34;5123269;28;20051;-71
2023/01/13 04:25:56;;;;;;;0.90;0.40;;;10.00;99.90;;;9.91;100.00;100037.91;5123426;29;20098;-71
2023/01/13 04:28:28;;;;;;;2.50;0.70;;;10.00;99.90;;;9.88;100.00;100043.03;5123192;29;20058;-70
2023/01/13 04:31:01;;;;;;;1.45;0.60;;;9.90;99.90;;;9.82;100.00;100042.88;5123064;29;20047;-71
2023/01/13 04:33:33;;;;;;;1.63;0.52;;;9.90;99.90;;;9.79;100.00;100042.81;5123318;29;20055;-70
2023/01/13 04:36:06;;;;;;;1.55;0.50;;;9.80;99.90;;;9.75;100.00;100040.94;5106548;29;20048;-70
2023/01/13 04:38:40;;;;;;;1.38;0.57;;;9.80;99.90;;;9.69;100.00;100032.97;5123063;29;20476;-71
2023/01/13 04:41:12;;;;;;;0.60;0.52;;;9.80;99.90;;;9.64;100.00;100051.06;5123267;29;20126;-71
2023/01/13 04:43:44;;;;;;;1.27;0.30;;;9.70;99.90;;;9.62;100.00;100044.94;5122974;29;20422;-71
2023/01/13 04:46:16;;;;;;;1.65;0.45;;;9.70;99.90;;;9.59;100.00;100044.00;5122929;29;20067;-71
2023/01/13 04:48:48;;;;;;;1.75;0.60;;;9.70;99.90;;;9.57;100.00;100038.72;5123175;29;20071;-71
2023/01/13 04:51:20;;;;;;;3.85;0.73;;;9.70;99.90;;;9.56;100.00;100044.78;5123080;29;20519;-71
2023/01/13 04:53:54;;;;;;;5.10;1.08;;;9.60;99.90;;;9.52;100.00;100053.38;5123370;29;20532;-71
2023/01/13 04:56:26;;;;;;;3.78;0.47;;;9.60;99.90;;;9.50;100.00;100049.81;5123713;29;20575;-71
2023/01/13 04:58:58;;;;;;;2.60;0.80;;;9.60;99.90;;;9.50;100.00;100048.09;5273035;23;20050;-72
2023/01/13 05:01:31;;;;;;;1.55;0.68;;;9.60;99.90;;;9.49;100.00;100042.84;5130608;28;20053;-71
2023/01/13 05:04:03;;;;;;;0.95;0.50;;;9.60;99.90;;;9.47;100.00;100055.84;5142608;28;20055;-70
2023/01/13 05:06:36;;;;;;;1.75;0.60;;;9.60;99.90;;;9.44;100.00;100054.84;5143321;28;20051;-71
2023/01/13 05:09:12;;;;;;;4.20;0.68;;;9.50;99.90;;;9.40;100.00;100056.50;5142385;28;20046;-71
2023/01/13 05:17:26;;;;;;;2.95;0.75;;;9.50;99.90;;;9.36;100.00;100040.75;5145422;28;20147;-71
2023/01/13 05:19:59;;;;;;;3.28;1.15;;;9.50;99.90;;;9.32;100.00;100044.97;5162566;28;20487;-72
2023/01/13 05:25:23;;;;;;;4.10;0.52;;;9.40;99.90;;;9.27;100.00;100036.19;5162530;28;20068;-71
2023/01/13 05:27:59;;;;;;;1.27;0.52;;;9.40;99.90;;;9.26;100.00;100039.66;5163001;28;20049;-71
2023/01/13 05:30:37;;;;;;;1.17;0.63;;;9.40;99.90;;;9.29;100.00;100041.44;5162868;28;20121;-71
2023/01/13 05:33:09;;;;;;;2.70;0.68;;;9.40;99.90;;;9.26;100.00;100037.03;5162769;28;20097;-71
2023/01/13 05:35:44;;;;;;;3.88;0.70;;;9.30;99.90;;;9.26;100.00;100029.25;5166315;28;20046;-71
2023/01/13 05:38:17;;;;;;;2.75;0.50;;;9.40;99.90;;;9.25;100.00;100038.72;5166394;28;20421;-71
2023/01/13 05:43:40;;;;;;;2.80;0.57;;;9.30;99.90;;;9.23;100.00;100044.75;5166140;28;20138;-72
2023/01/13 05:46:13;;;;;;;4.72;1.27;;;9.30;99.90;;;9.22;100.00;100048.19;5166060;28;20054;-71
2023/01/13 05:48:46;;;;;;;3.85;1.08;;;9.30;99.90;;;9.20;100.00;100055.94;5148861;28;20070;-71
2023/01/13 05:51:21;;;;;;;3.45;1.02;;;9.30;99.90;;;9.22;100.00;100056.00;5148721;28;20054;-71
2023/01/13 05:53:53;;;;;;;4.45;0.70;;;9.30;99.90;;;9.24;100.00;100064.69;5166374;28;20427;-71
2023/01/13 05:56:27;;;;;;;4.25;1.20;;;9.30;99.90;;;9.26;100.00;100065.66;5165989;28;20070;-71
2023/01/13 05:58:59;;;;;;;4.28;0.85;;;9.40;99.90;;;9.26;100.00;100065.66;5165776;28;20503;-70
2023/01/13 06:01:31;;;;;;;4.75;0.85;;;9.40;99.90;;;9.31;100.00;100052.75;5165942;28;20038;-71
2023/01/13 06:04:03;;;;;;;1.55;0.80;;;9.40;99.90;;;9.32;100.00;100054.50;5148682;28;20042;-70
2023/01/13 06:06:36;;;;;;;1.95;0.55;;;9.40;99.90;;;9.35;100.00;100059.81;5166287;28;20394;-71
2023/01/13 06:09:09;;;;;;;2.20;0.70;;;9.40;99.90;;;9.37;100.00;100069.41;5165688;28;20050;-71
2023/01/13 06:11:43;;;;;;;2.35;0.85;;;9.40;99.90;;;9.39;100.00;100075.56;5165872;28;20585;-71
2023/01/13 06:14:16;;;;;;;2.75;1.30;;;9.50;99.90;;;9.40;100.00;100077.31;5148276;28;20598;-70
2023/01/13 06:16:48;;;;;;;2.40;1.15;;;9.40;99.90;;;9.40;100.00;100084.25;5148124;28;20062;-71
2023/01/13 06:19:20;;;;;;;1.92;0.73;;;9.50;99.90;;;9.39;100.00;100098.97;5165343;28;20070;-71
2023/01/13 06:21:52;;;;;;;2.10;0.47;;;9.50;99.90;;;9.38;100.00;100101.50;5165457;28;20046;-71
2023/01/13 06:24:24;;;;;;;4.05;1.15;;;9.50;99.90;;;9.35;100.00;100112.72;5165651;28;20049;-70
2023/01/13 06:26:58;;;;;;;1.73;0.82;;;9.40;99.90;;;9.34;100.00;100116.16;5165628;28;20046;-72
2023/01/13 06:29:30;;;;;;;1.70;0.50;;;9.40;99.90;;;9.35;100.00;100111.84;5165501;28;20487;-70
2023/01/13 06:32:07;;;;;;;3.67;0.88;;;9.40;99.90;;;9.35;100.00;100115.31;5160348;28;20518;-71
2023/01/13 06:34:41;;;;;;;1.15;0.63;;;9.40;99.90;;;9.36;100.00;100116.19;5143278;28;20047;-71
2023/01/13 06:37:18;;;;;;;2.03;0.60;;;9.40;99.90;;;9.37;100.00;100110.16;5144978;28;20062;-71
2023/01/13 06:39:51;;;;;;;1.27;0.60;;;9.40;99.90;;;9.37;100.00;100126.63;5144797;28;20054;-71
2023/01/13 06:45:15;;;;;;;1.70;0.60;;;9.40;99.90;;;9.38;100.00;100131.00;5145331;28;20046;-72
2023/01/13 06:47:47;;;;;;;2.38;0.52;;;9.40;99.90;;;9.38;100.00;100127.50;5127678;28;20054;-72
2023/01/13 06:50:19;;;;;;;2.60;0.63;;;9.40;99.90;;;9.37;100.00;100126.63;5144727;28;20047;-72
2023/01/13 06:52:51;;;;;;;2.80;0.60;;;9.40;99.90;;;9.37;100.00;100126.63;5145055;28;20149;-72
2023/01/13 06:55:23;;;;;;;2.05;0.60;;;9.40;99.90;;;9.38;100.00;100120.59;5145370;28;20050;-72
2023/01/13 06:57:59;;;;;;;1.13;0.65;;;9.40;99.90;;;9.39;100.00;100130.19;5127891;28;20046;-71
2023/01/13 07:00:34;;;;;;;2.88;0.88;;;9.50;99.90;;;9.42;100.00;100135.47;5144363;28;20047;-72
2023/01/13 07:03:08;;;;;;;2.95;0.95;;;9.50;99.90;;;9.44;100.00;100148.50;5145065;28;20053;-71
2023/01/13 07:05:42;;;;;;;3.03;0.85;;;9.50;99.90;;;9.47;100.00;100139.09;5144523;28;20046;-60
2023/01/13 07:08:15;;;;;;;1.98;0.82;;;9.50;99.90;;;9.48;100.00;100139.97;5144771;28;20411;-61
2023/01/13 07:10:47;;;;;;;3.50;0.70;;;9.50;99.90;;;9.49;100.00;100144.31;5144206;28;20466;-61
2023/01/13 07:16:10;;;;;;;2.10;0.60;;;9.60;99.90;;;9.55;100.00;100141.91;5140383;28;20499;-61
2023/01/13 07:18:42;;;;;;;1.40;0.65;;;9.60;99.90;;;9.57;100.00;100149.75;5144249;28;20057;-62
2023/01/13 07:21:17;;;;;;;2.85;0.70;;;9.60;99.90;;;9.59;100.00;100145.47;5144000;28;20046;-61
2023/01/13 07:23:49;;;;;;;1.40;0.80;;;9.60;99.90;;;9.58;100.00;100157.59;5126892;28;20051;-61
2023/01/13 07:26:21;;;;;;;0.95;0.70;;;9.60;99.90;;;9.58;100.00;100161.91;5143794;28;20050;-61
2023/01/13 07:28:55;;;;;;;0.73;0.50;;;9.60;99.90;;;9.54;100.00;100154.88;5143309;28;20050;-62
2023/01/13 07:31:27;;;;;;;2.47;0.63;;;9.60;99.90;;;9.54;100.00;100154.88;5126247;28;20065;-62
2023/01/13 07:33:59;;;;;;;1.35;0.60;;;9.60;99.90;;;9.54;100.00;100165.28;5143672;28;20046;-61
2023/01/13 07:36:31;;;;;;;1.83;0.45;;;9.60;99.90;;;9.52;100.00;100155.72;5143260;28;20051;-61
2023/01/13 07:39:04;;;;;;;1.48;0.50;;;9.60;99.90;;;9.54;100.00;100154.88;5143617;28;20051;-59
2023/01/13 07:44:27;;;;;;;1.27;0.50;;;9.60;99.90;;;9.51;100.00;100166.94;5144127;28;20050;-60
2023/01/13 07:46:59;;;;;;;3.40;0.75;;;9.60;99.90;;;9.50;100.00;100172.97;5144096;28;20074;-61
2023/01/13 07:49:32;;;;;;;0.63;0.43;;;9.60;99.90;;;9.49;100.00;100181.63;5143616;28;20069;-61
2023/01/13 07:52:05;;;;;;;1.45;0.55;;;9.60;99.90;;;9.51;100.00;100174.75;5143596;28;20479;-61
2023/01/13 07:54:37;;;;;;;1.58;0.60;;;9.60;99.90;;;9.46;100.00;100178.94;5142927;28;20133;-59
2023/01/13 07:57:09;;;;;;;0.95;0.50;;;9.50;99.90;;;9.42;100.00;100187.50;5142683;28;20130;-59
2023/01/13 07:59:43;;;;;;;1.17;0.70;;;9.50;99.90;;;9.36;100.00;100187.31;5143119;28;20051;-60
2023/01/13 08:02:15;;;;;;;0.57;0.30;;;9.50;99.90;;;9.32;100.00;100182.84;5143556;28;20038;-60
2023/01/13 08:04:47;;;;;;;1.48;0.60;;;9.40;99.90;;;9.31;100.00;100188.00;5143733;28;20042;-60
2023/01/13 08:07:19;;;;;;;1.45;0.50;;;9.40;99.90;;;9.27;100.00;100180.97;5143533;28;20077;-60
2023/01/13 08:09:51;;;;;;;1.58;0.82;;;9.40;99.90;;;9.24;100.00;100187.81;5143046;28;20129;-61
2023/01/13 08:15:14;;;;;;;1.90;0.90;;;9.40;99.90;;;9.21;100.00;100184.25;5135482;28;20043;-59
2023/01/13 08:17:46;;;;;;;2.00;0.70;;;9.30;99.90;;;9.20;100.00;100190.28;5142995;28;20047;-60
2023/01/13 08:20:19;;;;;;;1.30;0.45;;;9.30;99.90;;;9.17;100.00;100190.19;5142943;28;20051;-60
2023/01/13 08:22:51;;;;;;;1.60;0.52;;;9.30;99.90;;;9.14;100.00;100182.31;5143409;28;20055;-60
2023/01/13 08:25:23;;;;;;;1.67;0.52;;;9.30;99.90;;;9.15;100.00;100197.06;5143205;28;20054;-60
2023/01/13 08:27:58;;;;;;;1.75;0.80;;;9.30;99.90;;;9.15;100.00;100197.94;5143342;28;20404;-60
2023/01/13 08:30:32;;;;;;;1.92;0.45;;;9.30;99.90;;;9.13;100.00;100198.75;5142839;28;20039;-60
2023/01/13 08:33:07;;;;;;;1.48;0.70;;;9.20;99.90;;;9.12;100.00;100196.94;5143108;28;20047;-60
2023/01/13 08:35:41;;;;;;;1.65;0.70;;;9.20;99.90;;;9.12;100.00;100199.56;5143283;28;20415;-61
2023/01/13 08:38:13;;;;;;;1.55;0.80;;;9.20;99.90;;;9.12;100.00;100205.63;5143053;28;20043;-60
2023/01/13 08:40:46;;;;;;;2.90;0.60;;;9.30;99.90;;;9.15;100.00;100207.47;5142581;28;20129;-60
2023/01/13 08:43:18;;;;;;;2.55;0.63;;;9.20;99.90;;;9.14;100.00;100200.50;5141704;28;20380;-59
2023/01/13 08:45:58;;;;;;;1.17;0.60;;;9.20;99.90;;;9.18;100.00;100212.75;5136634;28;20492;-60
2023/01/13 08:48:31;;;;;;;2.15;0.73;;;9.30;99.90;;;9.19;100.00;100214.50;5134675;28;20504;-60
2023/01/13 08:51:05;;;;;;;2.58;0.70;;;9.30;99.90;;;9.21;100.00;100220.66;5142539;28;20043;-63
2023/01/13 08:53:37;;;;;;;2.05;0.68;;;9.30;99.90;;;9.50;100.00;100219.81;5142891;28;20049;-63
2023/01/13 08:56:10;;;;;;;2.05;0.73;;;9.60;99.90;;;9.80;100.00;100224.16;5142771;28;20047;-62
2023/01/13 08:58:42;;;;;;;2.97;0.73;;;9.90;99.90;;;10.02;100.00;100228.25;5125299;28;20478;-62
2023/01/13 09:01:20;;;;;;;1.85;0.70;;;10.10;99.90;;;10.29;100.00;100241.16;5142868;28;20050;-62
2023/01/13 09:03:53;;;;;;;2.05;0.82;;;10.40;99.90;;;10.57;100.00;100240.19;5124851;28;20047;-62
2023/01/13 09:06:25;;;;;;;4.10;1.05;;;10.70;99.90;;;10.62;100.00;100261.16;5142538;28;20046;-61
2023/01/13 09:08:58;;;;;;;6.55;1.17;;;10.70;99.90;;;10.57;100.00;100248.91;5148979;28;20070;-61
2023/01/13 09:14:26;;;;;;;;;;;10.60;99.90;;;10.32;100.00;100244.75;5146823;28;20058;-61
2023/01/13 09:17:00;;;;;;;4.22;1.13;;;10.50;99.90;;;10.23;100.00;100260.13;5146555;28;19922;-61
2023/01/13 09:19:32;;;;;;;4.85;1.00;;;10.30;99.90;;;10.14;100.00;100238.13;5145558;28;20053;-61
2023/01/13 09:22:04;;;;;;;4.68;0.80;;;10.20;99.90;;;10.13;100.00;100245.06;5144906;28;20407;-63
2023/01/13 09:24:36;;;;;;;4.60;0.88;;;10.20;99.90;;;10.34;100.00;100231.75;5143967;28;20039;-61
2023/01/13 09:27:09;;;;;;;6.40;1.05;;;10.40;99.90;;;10.45;100.00;100238.16;5146017;28;20051;-61
2023/01/13 09:29:41;;;;;;;8.23;1.05;;;10.50;99.90;;;10.39;100.00;100248.41;5145811;28;20051;-61
2023/01/13 09:32:15;;;;;;;7.32;1.30;;;10.40;99.90;;;10.35;100.00;100238.72;5146077;28;20039;-61
2023/01/13 09:35:02;;;;;;;7.90;1.40;;;10.40;99.90;;;10.32;100.00;100243.88;5146308;28;20054;-61
2023/01/13 09:37:37;;;;;;;5.00;1.35;;;10.40;99.90;;;10.38;100.00;100244.03;5119347;28;20047;-61
2023/01/13 09:40:15;;;;;;;;;;;10.40;99.90;;;10.41;100.00;100238.91;5137770;28;20059;-62
2023/01/13 09:45:49;;;;;;;4.45;0.73;;;10.50;99.90;;;10.63;100.00;100252.47;5141937;28;20047;-62
2023/01/13 09:48:30;;;;;;;5.00;0.82;;;10.60;99.90;;;10.73;100.00;100250.16;5145552;28;20046;-62
2023/01/13 09:51:13;;;;;;;3.50;0.88;;;10.60;99.90;;;10.90;100.00;100240.16;5144920;28;20050;-61
2023/01/13 09:53:54;;;;;;;5.70;1.50;;;10.80;99.90;;;11.02;100.00;100245.69;5141597;28;20537;-61
2023/01/13 09:56:26;;;;;;;3.33;0.80;;;10.90;99.90;;;11.12;100.00;100258.09;5145703;28;20129;-62
2023/01/13 09:58:58;;;;;;;6.38;1.30;;;11.00;99.90;;;11.28;100.00;100258.44;5145440;28;20046;-61
2023/01/13 10:01:39;;;;;;;4.28;0.90;;;11.10;99.90;;;11.33;99.10;100246.38;5145663;28;20046;-61
2023/01/13 10:04:14;;;;;;;5.28;1.15;;;11.20;99.90;;;11.35;99.06;100248.22;5122055;28;20093;-61
2023/01/13 10:06:50;;;;;;;6.50;1.00;;;11.20;99.90;;;11.32;98.61;100249.84;5144934;28;20504;-61
2023/01/13 10:09:31;;;;;;;4.38;1.15;;;11.20;99.90;;;11.29;97.58;100261.09;5139026;28;20496;-61
2023/01/13 10:14:55;;;;;;;8.70;1.17;;;11.20;99.90;;;11.29;97.46;100239.34;5146342;28;20571;-61
2023/01/13 10:17:35;;;;;;;5.78;0.93;;;11.20;99.90;;;11.35;96.28;100244.72;5146425;28;20406;-62
2023/01/13 10:20:20;;;;;;;5.03;1.17;;;11.20;99.90;;;11.48;96.51;100241.53;5128787;28;20047;-61
2023/01/13 10:23:07;;;;;;;7.35;1.67;;;11.30;99.90;;;11.65;96.74;100250.59;5145240;28;20039;-61
2023/01/13 10:25:55;;;;;;;3.80;1.15;;;11.50;99.90;;;11.78;95.20;100258.69;5141558;28;20489;-61
2023/01/13 10:28:27;;;;;;;7.07;1.73;;;11.60;99.90;;;11.74;93.18;100251.66;5141825;28;20050;-61
2023/01/13 10:31:00;;;;;;;6.60;1.42;;;11.60;99.90;;;11.66;93.36;100241.91;5126037;28;20050;-61
2023/01/13 10:33:32;;;;;;;3.63;0.93;;;11.50;99.90;;;11.63;94.83;100243.59;5122099;28;20528;-63
2023/01/13 10:36:14;;;;;;;6.00;1.23;;;11.50;99.90;;;11.70;99.94;100242.88;5145466;28;20050;-59
2023/01/13 10:38:49;;;;;;;6.05;1.02;;;11.60;99.90;;;12.19;100.00;100257.88;5145810;28;20047;-59
2023/01/13 10:41:25;;;;;;;7.90;1.33;;;12.20;99.90;;;12.67;100.00;100249.16;5145633;28;20047;-59
2023/01/13 10:44:02;;;;;;;4.63;1.02;;;12.70;99.90;;;12.92;99.40;100260.94;5145278;28;20085;-63
2023/01/13 10:46:51;;;;;;;3.20;0.98;;;13.00;99.90;;;12.74;93.51;100251.03;5144937;28;20057;-62
2023/01/13 10:49:31;;;;;;;4.47;1.15;;;12.90;99.90;;;12.45;90.35;100255.75;5142234;28;20038;-61
2023/01/13 10:52:26;;;;;;;4.70;0.95;;;12.60;99.90;;;12.16;90.53;100259.53;5145146;28;20054;-61
2023/01/13 10:54:58;;;;;;;3.28;0.82;;;12.30;99.90;;;11.99;91.13;100256.56;5144816;28;20078;-62
2023/01/13 10:57:36;;;;;;;3.08;1.02;;;12.00;99.90;;;11.88;91.30;100269.41;5144899;28;20097;-61
2023/01/13 11:00:28;;;;;;;6.22;1.00;;;11.90;99.90;;;11.75;92.18;100262.13;5212201;23;20398;-57
2023/01/13 11:03:26;;;;;;;4.30;0.90;;;11.80;99.90;;;11.61;92.80;100269.66;5156310;28;20042;-58
2023/01/13 11:06:00;;;;;;;5.88;0.98;;;11.60;99.90;;;11.52;93.23;100272.06;5142725;28;20073;-57
2023/01/13 11:08:43;;;;;;;8.27;0.98;;;11.50;99.90;;;11.47;91.84;100267.56;5143386;28;20042;-58
2023/01/13 11:11:39;;;;;;;6.88;0.93;;;11.50;99.90;;;11.41;91.35;100289.22;5164360;28;20045;-56
2023/01/13 11:14:39;;;;;;;9.98;1.40;;;11.40;99.90;;;11.33;91.87;100293.34;5164006;28;20042;-58
2023/01/13 11:17:34;;;;;;;6.53;1.15;;;11.30;99.90;;;11.27;92.51;100294.09;5157973;28;20050;-58
2023/01/13 11:20:19;;;;;;;5.38;1.52;;;11.20;99.90;;;11.24;92.15;100290.53;5163147;28;20046;-57
2023/01/13 11:22:54;;;;;;;5.32;1.25;;;11.20;99.90;;;11.20;93.23;100296.50;5163746;28;20043;-56
2023/01/13 11:25:40;;;;;;;2.75;0.95;;;11.20;99.90;;;11.18;94.54;100300.81;5163438;28;20136;-57
2023/01/13 11:28:34;;;;;;;3.80;1.10;;;11.10;99.90;;;11.19;95.06;100299.97;5164734;28;20043;-56
2023/01/13 11:31:15;;;;;;;6.10;1.15;;;11.20;99.90;;;11.23;95.30;100296.59;5163333;28;20203;-58
2023/01/13 11:33:55;;;;;;;6.47;1.42;;;11.20;99.90;;;11.24;93.53;100296.63;5164121;28;20046;-57